sensor_id;sensor_type;location;lat;lon;timestamp;pressure;altitude;pressure_sealevel;temperature;humidity
11525;BME280;5819;49.648;8.330;2023-02-12T06:58:33;102576.06;;;4.83;100.00
11525;BME280;5819;49.648;8.330;2023-02-12T07:01:22;102578.66;;;4.84;100.00
11525;BME280;5819;49.648;8.330;2023-02-12T07:03:52;102577.75;;;4.81;100.00
11525;BME280;5819;49.648;8.330;2023-02-12T07:06:21;102582.81;;;4.76;100.00
11525;BME280;5819;49.648;8.330;2023-02-12T07:08:49;102591.47;;;4.80;100.00
11525;BME280;5819;49.648;8.330;2023-02-12T07:11:17;102585.56;;;4.87;100.00
11525;BME280;5819;49.648;8.330;2023-02-12T07:13:46;102589.97;;;4.94;100.00
11525;BME280;5819;49.648;8.330;2023-02-12T07:16:56;102601.28;;;5.00;100.00
11525;BME280;5819;49.648;8.330;2023-02-12T07:19:53;102597.94;;;5.06;100.00
11525;BME280;5819;49.648;8.330;2023-02-12T07:22:22;102602.28;;;5.10;100.00
11525;BME280;5819;49.648;8.330;2023-02-12T07:24:49;102603.22;;;5.13;100.00
11525;BME280;5819;49.648;8.330;2023-02-12T07:27:17;102601.56;;;5.17;100.00
11525;BME280;5819;49.648;8.330;2023-02-12T07:29:46;102599.03;;;5.20;100.00
11525;BME280;5819;49.648;8.330;2023-02-12T07:32:14;102604.22;;;5.23;100.00
11525;BME280;5819;49.648;8.330;2023-02-12T07:34:42;102601.59;;;5.20;100.00
11525;BME280;5819;49.648;8.330;2023-02-12T07:37:10;102601.59;;;5.20;100.00
11525;BME280;5819;49.648;8.330;2023-02-12T07:39:38;102601.66;;;5.23;100.00
11525;BME280;5819;49.648;8.330;2023-02-12T07:42:18;102599.09;;;5.25;100.00
11525;BME280;5819;49.648;8.330;2023-02-12T07:44:50;102590.53;;;5.27;100.00
11525;BME280;5819;49.648;8.330;2023-02-12T07:47:19;102602.56;;;5.27;100.00
11525;BME280;5819;49.648;8.330;2023-02-12T07:52:30;102604.34;;;5.29;100.00
11525;BME280;5819;49.648;8.330;2023-02-12T07:54:57;102601.81;;;5.32;100.00
11525;BME280;5819;49.648;8.330;2023-02-12T07:57:25;102607.00;;;5.35;100.00
11525;BME280;5819;49.648;8.330;2023-02-12T07:59:54;102605.34;;;5.39;100.00
11525;BME280;5819;49.648;8.330;2023-02-12T08:02:23;102615.75;;;5.45;100.00
11525;BME280;5819;49.648;8.330;2023-02-12T08:04:54;102611.47;;;5.45;100.00
11525;BME280;5819;49.648;8.330;2023-02-12T08:07:22;102613.22;;;5.48;100.00
11525;BME280;5819;49.648;8.330;2023-02-12T08:09:51;102619.25;;;5.50;100.00
11525;BME280;5819;49.648;8.330;2023-02-12T08:12:18;102606.41;;;5.54;100.00
11525;BME280;5819;49.648;8.330;2023-02-12T08:14:46;102610.75;;;5.55;100.00
11525;BME280;5819;49.648;8.330;2023-02-12T08:17:15;102611.66;;;5.57;100.00
11525;BME280;5819;49.648;8.330;2023-02-12T08:19:43;102620.22;;;5.58;100.00
11525;BME280;5819;49.648;8.330;2023-02-12T08:22:12;102615.97;;;5.60;100.00
11525;BME280;5819;49.648;8.330;2023-02-12T08:24:40;102620.28;;;5.59;100.00
11525;BME280;5819;49.648;8.330;2023-02-12T08:27:09;102616.81;;;5.59;100.00
11525;BME280;5819;49.648;8.330;2023-02-12T08:29:37;102616.84;;;5.60;100.00
11525;BME280;5819;49.648;8.330;2023-02-12T08:32:06;102616.00;;;5.63;100.00
11525;BME280;5819;49.648;8.330;2023-02-12T08:34:40;102619.47;;;5.63;100.00
11525;BME280;5819;49.648;8.330;2023-02-12T08:37:08;102620.34;;;5.64;100.00
11525;BME280;5819;49.648;8.330;2023-02-12T08:39:37;102624.66;;;5.66;100.00
11525;BME280;5819;49.648;8.330;2023-02-12T08:42:05;102625.59;;;5.72;100.00
11525;BME280;5819;49.648;8.330;2023-02-12T08:44:34;102627.34;;;5.74;100.00
11525;BME280;5819;49.648;8.330;2023-02-12T08:47:03;102626.50;;;5.75;100.00
11525;BME280;5819;49.648;8.330;2023-02-12T08:49:32;102630.91;;;5.82;100.00
11525;BME280;5819;49.648;8.330;2023-02-12T08:52:01;102619.75;;;5.83;100.00
11525;BME280;5819;49.648;8.330;2023-02-12T08:54:29;102631.81;;;5.84;100.00
11525;BME280;5819;49.648;8.330;2023-02-12T08:56:59;102623.25;;;5.87;100.00
11525;BME280;5819;49.648;8.330;2023-02-12T08:59:28;102623.41;;;5.96;100.00
11525;BME280;5819;49.648;8.330;2023-02-12T09:01:56;102630.25;;;5.92;100.00
11525;BME280;5819;49.648;8.330;2023-02-12T09:04:26;102625.97;;;5.96;100.00
11525;BME280;5819;49.648;8.330;2023-02-12T09:06:54;102628.59;;;5.97;100.00
11525;BME280;5819;49.648;8.330;2023-02-12T09:09:24;102629.47;;;5.99;100.00
11525;BME280;5819;49.648;8.330;2023-02-12T09:11:51;102629.53;;;6.04;100.00
11525;BME280;5819;49.648;8.330;2023-02-12T09:14:19;102637.28;;;6.04;100.00
11525;BME280;5819;49.648;8.330;2023-02-12T09:16:51;102633.91;;;6.11;100.00
11525;BME280;5819;49.648;8.330;2023-02-12T09:19:20;102633.00;;;6.07;100.00
11525;BME280;5819;49.648;8.330;2023-02-12T09:21:50;102628.75;;;6.11;100.00
11525;BME280;5819;49.648;8.330;2023-02-12T09:24:21;102637.41;;;6.15;100.00
11525;BME280;5819;49.648;8.330;2023-02-12T09:26:51;102622.84;;;6.20;100.00
11525;BME280;5819;49.648;8.330;2023-02-12T09:29:19;102639.31;;;6.29;100.00
11525;BME280;5819;49.648;8.330;2023-02-12T09:31:46;102635.00;;;6.28;100.00
11525;BME280;5819;49.648;8.330;2023-02-12T09:34:14;102635.00;;;6.28;100.00
11525;BME280;5819;49.648;8.330;2023-02-12T09:36:42;102641.06;;;6.32;100.00
11525;BME280;5819;49.648;8.330;2023-02-12T09:39:10;102629.03;;;6.35;100.00
11525;BME280;5819;49.648;8.330;2023-02-12T09:42:06;102633.41;;;6.39;100.00
11525;BME280;5819;49.648;8.330;2023-02-12T09:44:45;102631.78;;;6.47;100.00
11525;BME280;5819;49.648;8.330;2023-02-12T09:47:17;102637.78;;;6.46;100.00
11525;BME280;5819;49.648;8.330;2023-02-12T09:50:05;102636.06;;;6.47;100.00
11525;BME280;5819;49.648;8.330;2023-02-12T09:52:39;102639.66;;;6.59;100.00
11525;BME280;5819;49.648;8.330;2023-02-12T09:55:12;102638.06;;;6.72;100.00
11525;BME280;5819;49.648;8.330;2023-02-12T09:57:43;102642.31;;;6.67;100.00
11525;BME280;5819;49.648;8.330;2023-02-12T10:00:15;102640.63;;;6.69;100.00
11525;BME280;5819;49.648;8.330;2023-02-12T10:02:44;102653.47;;;6.63;100.00
11525;BME280;5819;49.648;8.330;2023-02-12T10:05:15;102638.88;;;6.67;100.00
11525;BME280;5819;49.648;8.330;2023-02-12T10:08:00;102643.19;;;6.68;100.00
11525;BME280;5819;49.648;8.330;2023-02-12T10:10:46;102638.09;;;6.74;100.00
11525;BME280;5819;49.648;8.330;2023-02-12T10:13:26;102640.75;;;6.83;100.00
11525;BME280;5819;49.648;8.330;2023-02-12T10:16:03;102636.44;;;6.83;100.00
11525;BME280;5819;49.648;8.330;2023-02-12T10:18:48;102637.34;;;6.87;100.00
11525;BME280;5819;49.648;8.330;2023-02-12T10:21:32;102641.63;;;6.82;100.00
11525;BME280;5819;49.648;8.330;2023-02-12T10:24:26;102632.13;;;6.81;100.00
11525;BME280;5819;49.648;8.330;2023-02-12T10:27:04;102633.91;;;6.85;100.00
11525;BME280;5819;49.648;8.330;2023-02-12T10:29:38;102638.22;;;6.87;100.00
11525;BME280;5819;49.648;8.330;2023-02-12T10:32:15;102634.84;;;6.93;100.00
11525;BME280;5819;49.648;8.330;2023-02-12T10:34:47;102626.19;;;6.91;100.00
11525;BME280;5819;49.648;8.330;2023-02-12T10:37:25;102628.84;;;6.97;100.00
11525;BME280;5819;49.648;8.330;2023-02-12T10:39:57;102623.72;;;7.01;100.00
11525;BME280;5819;49.648;8.330;2023-02-12T10:42:36;102622.88;;;7.07;100.00
11525;BME280;5819;49.648;8.330;2023-02-12T10:45:12;102615.19;;;7.13;100.00
11525;BME280;5819;49.648;8.330;2023-02-12T10:47:40;102613.53;;;7.24;100.00
11525;BME280;5819;49.648;8.330;2023-02-12T10:50:17;102607.53;;;7.30;100.00
11525;BME280;5819;49.648;8.330;2023-02-12T10:52:55;102604.06;;;7.31;100.00
11525;BME280;5819;49.648;8.330;2023-02-12T10:55:28;102608.47;;;7.38;100.00
11525;BME280;5819;49.648;8.330;2023-02-12T10:57:57;102609.28;;;7.35;100.00
11525;BME280;5819;49.648;8.330;2023-02-12T11:00:29;102605.94;;;7.45;100.00
11525;BME280;5819;49.648;8.330;2023-02-12T11:03:01;102600.78;;;7.51;100.00
11525;BME280;5819;49.648;8.330;2023-02-12T11:05:32;102599.97;;;7.63;100.00
11525;BME280;5819;49.648;8.330;2023-02-12T11:08:02;102593.94;;;7.63;100.00
11525;BME280;5819;49.648;8.330;2023-02-12T11:10:32;102593.97;;;7.66;100.00
11525;BME280;5819;49.648;8.330;2023-02-12T11:13:03;102590.53;;;7.71;100.00
11525;BME280;5819;49.648;8.330;2023-02-12T11:15:36;102588.84;;;7.78;100.00
11525;BME280;5819;49.648;8.330;2023-02-12T11:18:05;102581.09;;;7.87;100.00
11525;BME280;5819;49.648;8.330;2023-02-12T11:20:37;102582.84;;;7.91;100.00
11525;BME280;5819;49.648;8.330;2023-02-12T11:23:23;102576.84;;;7.93;100.00
11525;BME280;5819;49.648;8.330;2023-02-12T11:25:58;102575.97;;;7.96;100.00
11525;BME280;5819;49.648;8.330;2023-02-12T11:28:26;102566.53;;;8.10;100.00
11525;BME280;5819;49.648;8.330;2023-02-12T11:30:58;102571.69;;;8.01;100.00
11525;BME280;5819;49.648;8.330;2023-02-12T11:33:30;102566.53;;;8.12;100.00
11525;BME280;5819;49.648;8.330;2023-02-12T11:36:01;102559.66;;;8.24;100.00
11525;BME280;5819;49.648;8.330;2023-02-12T11:38:35;102564.91;;;8.30;100.00
11525;BME280;5819;49.648;8.330;2023-02-12T11:41:20;102566.63;;;8.34;100.00
11525;BME280;5819;49.648;8.330;2023-02-12T11:43:50;102555.41;;;8.40;100.00
11525;BME280;5819;49.648;8.330;2023-02-12T11:46:21;102556.25;;;8.39;100.00
11525;BME280;5819;49.648;8.330;2023-02-12T11:48:51;102559.72;;;8.38;100.00
11525;BME280;5819;49.648;8.330;2023-02-12T11:51:27;102553.66;;;8.46;100.00
11525;BME280;5819;49.648;8.330;2023-02-12T11:53:58;102551.97;;;8.58;100.00
11525;BME280;5819;49.648;8.330;2023-02-12T11:56:40;102552.00;;;8.62;100.00
11525;BME280;5819;49.648;8.330;2023-02-12T11:59:19;102551.09;;;8.63;100.00
11525;BME280;5819;49.648;8.330;2023-02-12T12:01:51;102552.84;;;8.73;100.00
11525;BME280;5819;49.648;8.330;2023-02-12T12:04:22;102549.38;;;8.79;100.00
11525;BME280;5819;49.648;8.330;2023-02-12T12:06:56;102544.22;;;8.89;100.00
11525;BME280;5819;49.648;8.330;2023-02-12T12:09:30;102547.66;;;8.98;100.00
11525;BME280;5819;49.648;8.330;2023-02-12T12:12:09;102540.72;;;8.92;100.00
11525;BME280;5819;49.648;8.330;2023-02-12T12:14:41;102533.81;;;9.00;100.00
11525;BME280;5819;49.648;8.330;2023-02-12T12:17:39;102531.22;;;9.09;100.00
11525;BME280;5819;49.648;8.330;2023-02-12T12:20:28;102537.25;;;9.07;100.00
11525;BME280;5819;49.648;8.330;2023-02-12T12:23:00;102532.09;;;8.98;100.00
11525;BME280;5819;49.648;8.330;2023-02-12T12:25:35;102530.38;;;8.98;100.00
11525;BME280;5819;49.648;8.330;2023-02-12T12:28:22;102530.34;;;9.10;100.00
11525;BME280;5819;49.648;8.330;2023-02-12T12:31:06;102526.00;;;9.12;100.00
11525;BME280;5819;49.648;8.330;2023-02-12T12:33:42;102521.66;;;9.20;100.00
11525;BME280;5819;49.648;8.330;2023-02-12T12:36:34;102515.59;;;9.24;100.00
11525;BME280;5819;49.648;8.330;2023-02-12T12:39:15;102505.19;;;9.36;100.00
11525;BME280;5819;49.648;8.330;2023-02-12T12:41:59;102506.03;;;9.40;100.00
11525;BME280;5819;49.648;8.330;2023-02-12T12:44:41;102506.03;;;9.42;100.00
11525;BME280;5819;49.648;8.330;2023-02-12T12:47:19;102499.09;;;9.47;100.00
11525;BME280;5819;49.648;8.330;2023-02-12T12:49:59;102494.75;;;9.53;100.00
11525;BME280;5819;49.648;8.330;2023-02-12T12:52:55;102498.19;;;9.61;100.00
11525;BME280;5819;49.648;8.330;2023-02-12T12:58:45;102487.75;;;9.66;100.00
11525;BME280;5819;49.648;8.330;2023-02-12T13:01:37;102493.00;;;9.54;100.00
11525;BME280;5819;49.648;8.330;2023-02-12T13:04:36;102485.28;;;9.32;100.00
11525;BME280;5819;49.648;8.330;2023-02-12T13:07:33;102490.47;;;9.32;100.00
11525;BME280;5819;49.648;8.330;2023-02-12T13:10:16;102486.16;;;9.34;100.00
11525;BME280;5819;49.648;8.330;2023-02-12T13:15:42;102480.09;;;9.32;100.00
11525;BME280;5819;49.648;8.330;2023-02-12T13:18:24;102480.03;;;9.43;100.00
11525;BME280;5819;49.648;8.330;2023-02-12T13:21:03;102478.34;;;9.37;100.00
11525;BME280;5819;49.648;8.330;2023-02-12T13:23:48;102474.91;;;9.34;100.00
11525;BME280;5819;49.648;8.330;2023-02-12T13:26:24;102478.31;;;9.45;100.00
11525;BME280;5819;49.648;8.330;2023-02-12T13:29:03;102470.47;;;9.56;100.00
11525;BME280;5819;49.648;8.330;2023-02-12T13:31:40;102471.38;;;9.47;100.00
11525;BME280;5819;49.648;8.330;2023-02-12T13:34:15;102469.69;;;9.42;100.00
11525;BME280;5819;49.648;8.330;2023-02-12T13:36:47;102464.47;;;9.40;100.00
11525;BME280;5819;49.648;8.330;2023-02-12T13:39:29;102461.06;;;9.26;100.00
11525;BME280;5819;49.648;8.330;2023-02-12T13:42:19;102467.97;;;9.31;100.00
11525;BME280;5819;49.648;8.330;2023-02-12T13:44:59;102467.94;;;9.42;100.00
11525;BME280;5819;49.648;8.330;2023-02-12T13:47:41;102464.44;;;9.49;100.00
11525;BME280;5819;49.648;8.330;2023-02-12T13:50:34;102457.50;;;9.48;100.00
11525;BME280;5819;49.648;8.330;2023-02-12T13:53:17;102449.72;;;9.48;100.00
11525;BME280;5819;49.648;8.330;2023-02-12T13:56:04;102449.69;;;9.51;100.00
11525;BME280;5819;49.648;8.330;2023-02-12T13:58:48;102452.28;;;9.57;100.00
11525;BME280;5819;49.648;8.330;2023-02-12T14:01:39;102449.63;;;9.68;100.00
11525;BME280;5819;49.648;8.330;2023-02-12T14:04:35;102446.09;;;9.81;100.00
11525;BME280;5819;49.648;8.330;2023-02-12T14:07:12;102447.84;;;9.77;100.00
11525;BME280;5819;49.648;8.330;2023-02-12T14:09:43;102441.81;;;9.74;100.00
11525;BME280;5819;49.648;8.330;2023-02-12T14:12:15;102441.84;;;9.69;100.00
11525;BME280;5819;49.648;8.330;2023-02-12T14:14:46;102441.84;;;9.66;100.00
11525;BME280;5819;49.648;8.330;2023-02-12T14:17:50;102439.31;;;9.53;100.00
11525;BME280;5819;49.648;8.330;2023-02-12T14:20:27;102441.84;;;9.68;100.00
11525;BME280;5819;49.648;8.330;2023-02-12T14:23:00;102442.69;;;9.71;100.00
11525;BME280;5819;49.648;8.330;2023-02-12T14:25:38;102433.94;;;9.91;100.00
11525;BME280;5819;49.648;8.330;2023-02-12T14:28:19;102437.44;;;9.82;100.00
11525;BME280;5819;49.648;8.330;2023-02-12T14:31:18;102436.63;;;9.72;100.00
11525;BME280;5819;49.648;8.330;2023-02-12T14:33:49;102441.91;;;9.54;100.00
11525;BME280;5819;49.648;8.330;2023-02-12T14:36:35;102436.69;;;9.57;100.00
11525;BME280;5819;49.648;8.330;2023-02-12T14:39:27;102432.41;;;9.55;100.00
11525;BME280;5819;49.648;8.330;2023-02-12T14:45:26;102425.47;;;9.54;100.00
11525;BME280;5819;49.648;8.330;2023-02-12T14:47:55;102418.47;;;9.63;100.00
11525;BME280;5819;49.648;8.330;2023-02-12T14:50:37;102413.91;;;10.00;100.00
11525;BME280;5819;49.648;8.330;2023-02-12T14:53:29;102407.94;;;9.87;100.00
11525;BME280;5819;49.648;8.330;2023-02-12T14:55:58;102405.41;;;9.77;100.00
11525;BME280;5819;49.648;8.330;2023-02-12T14:58:28;102404.50;;;9.79;100.00
11525;BME280;5819;49.648;8.330;2023-02-12T15:01:00;102407.97;;;9.80;100.00
11525;BME280;5819;49.648;8.330;2023-02-12T15:03:36;102404.66;;;9.58;100.00
11525;BME280;5819;49.648;8.330;2023-02-12T15:06:12;102411.63;;;9.44;100.00
11525;BME280;5819;49.648;8.330;2023-02-12T15:08:48;102412.56;;;9.32;100.00
11525;BME280;5819;49.648;8.330;2023-02-12T15:11:33;102416.13;;;9.04;100.00
11525;BME280;5819;49.648;8.330;2023-02-12T15:14:04;102414.44;;;8.85;100.00
11525;BME280;5819;49.648;8.330;2023-02-12T15:16:47;102414.47;;;8.77;100.00
11525;BME280;5819;49.648;8.330;2023-02-12T15:19:32;102423.09;;;8.79;100.00
11525;BME280;5819;49.648;8.330;2023-02-12T15:22:02;102416.22;;;8.74;100.00
11525;BME280;5819;49.648;8.330;2023-02-12T15:24:30;102416.22;;;8.74;100.00
11525;BME280;5819;49.648;8.330;2023-02-12T15:26:59;102408.41;;;8.68;100.00
11525;BME280;5819;49.648;8.330;2023-02-12T15:29:29;102414.47;;;8.61;100.00
11525;BME280;5819;49.648;8.330;2023-02-12T15:32:01;102411.03;;;8.56;100.00
11525;BME280;5819;49.648;8.330;2023-02-12T15:34:33;102414.50;;;8.44;100.00
11525;BME280;5819;49.648;8.330;2023-02-12T15:37:06;102418.81;;;8.33;100.00
11525;BME280;5819;49.648;8.330;2023-02-12T15:39:40;102404.09;;;8.23;100.00
11525;BME280;5819;49.648;8.330;2023-02-12T15:42:29;102408.41;;;8.13;100.00
11525;BME280;5819;49.648;8.330;2023-02-12T15:45:16;102415.31;;;8.05;100.00
11525;BME280;5819;49.648;8.330;2023-02-12T15:47:58;102414.44;;;8.00;100.00
11525;BME280;5819;49.648;8.330;2023-02-12T15:50:28;102418.75;;;7.92;100.00
11525;BME280;5819;49.648;8.330;2023-02-12T15:52:57;102420.47;;;7.88;100.00
11525;BME280;5819;49.648;8.330;2023-02-12T15:55:27;102410.97;;;7.87;100.00
11525;BME280;5819;49.648;8.330;2023-02-12T15:57:58;102415.28;;;7.81;100.00
11525;BME280;5819;49.648;8.330;2023-02-12T16:00:31;102413.53;;;7.78;100.00
11525;BME280;5819;49.648;8.330;2023-02-12T16:03:04;102418.69;;;7.68;100.00
11525;BME280;5819;49.648;8.330;2023-02-12T16:05:33;102420.41;;;7.60;100.00
11525;BME280;5819;49.648;8.330;2023-02-12T16:08:03;102416.91;;;7.54;100.00
11525;BME280;5819;49.648;8.330;2023-02-12T16:10:33;102415.19;;;7.50;100.00
11525;BME280;5819;49.648;8.330;2023-02-12T16:13:02;102417.75;;;7.47;100.00
11525;BME280;5819;49.648;8.330;2023-02-12T16:15:31;102410.81;;;7.39;100.00
11525;BME280;5819;49.648;8.330;2023-02-12T16:18:05;102409.94;;;7.29;100.00
11525;BME280;5819;49.648;8.330;2023-02-12T16:20:34;102412.47;;;7.20;100.00
11525;BME280;5819;49.648;8.330;2023-02-12T16:23:05;102409.84;;;7.14;100.00
11525;BME280;5819;49.648;8.330;2023-02-12T16:25:34;102410.69;;;7.09;100.00
11525;BME280;5819;49.648;8.330;2023-02-12T16:28:04;102410.69;;;7.04;100.00
11525;BME280;5819;49.648;8.330;2023-02-12T16:30:35;102408.91;;;6.98;100.00
11525;BME280;5819;49.648;8.330;2023-02-12T16:33:33;102410.59;;;6.90;100.00
11525;BME280;5819;49.648;8.330;2023-02-12T16:36:04;102416.59;;;6.86;100.00
11525;BME280;5819;49.648;8.330;2023-02-12T16:38:43;102416.59;;;6.82;100.00
11525;BME280;5819;49.648;8.330;2023-02-12T16:41:23;102424.34;;;6.80;100.00
11525;BME280;5819;49.648;8.330;2023-02-12T16:44:24;102425.19;;;6.78;100.00
11525;BME280;5819;49.648;8.330;2023-02-12T16:46:57;102424.28;;;6.74;100.00
11525;BME280;5819;49.648;8.330;2023-02-12T16:49:30;102420.00;;;6.73;100.00
11525;BME280;5819;49.648;8.330;2023-02-12T16:52:23;102422.53;;;6.66;100.00
11525;BME280;5819;49.648;8.330;2023-02-12T16:54:55;102418.19;;;6.65;100.00
11525;BME280;5819;49.648;8.330;2023-02-12T16:57:23;102427.66;;;6.63;100.00
11525;BME280;5819;49.648;8.330;2023-02-12T16:59:51;102434.53;;;6.61;100.00
11525;BME280;5819;49.648;8.330;2023-02-12T17:02:19;102424.22;;;6.61;100.00
11525;BME280;5819;49.648;8.330;2023-02-12T17:04:49;102428.59;;;6.72;100.00
11525;BME280;5819;49.648;8.330;2023-02-12T17:07:21;102428.53;;;6.63;100.00
11525;BME280;5819;49.648;8.330;2023-02-12T17:09:49;102438.81;;;6.58;100.00
11525;BME280;5819;49.648;8.330;2023-02-12T17:12:20;102433.63;;;6.55;100.00
11525;BME280;5819;49.648;8.330;2023-02-12T17:14:49;102431.06;;;6.58;100.00
11525;BME280;5819;49.648;8.330;2023-02-12T17:17:17;102442.22;;;6.48;100.00
11525;BME280;5819;49.648;8.330;2023-02-12T17:19:45;102437.84;;;6.43;100.00
11525;BME280;5819;49.648;8.330;2023-02-12T17:22:17;102433.47;;;6.36;100.00
11525;BME280;5819;49.648;8.330;2023-02-12T17:24:47;102442.94;;;6.35;100.00
11525;BME280;5819;49.648;8.330;2023-02-12T17:27:17;102444.63;;;6.29;100.00
11525;BME280;5819;49.648;8.330;2023-02-12T17:29:45;102440.28;;;6.26;100.00
11525;BME280;5819;49.648;8.330;2023-02-12T17:32:13;102446.28;;;6.21;100.00
11525;BME280;5819;49.648;8.330;2023-02-12T17:34:41;102442.88;;;6.25;100.00
11525;BME280;5819;49.648;8.330;2023-02-12T17:37:16;102450.59;;;6.23;100.00
11525;BME280;5819;49.648;8.330;2023-02-12T17:39:44;102447.09;;;6.17;100.00
11525;BME280;5819;49.648;8.330;2023-02-12T17:42:12;102453.94;;;6.11;100.00
11525;BME280;5819;49.648;8.330;2023-02-12T17:44:40;102460.00;;;6.14;100.00
11525;BME280;5819;49.648;8.330;2023-02-12T17:47:08;102457.31;;;6.04;100.00
11525;BME280;5819;49.648;8.330;2023-02-12T17:49:36;102467.63;;;6.01;100.00
11525;BME280;5819;49.648;8.330;2023-02-12T17:52:06;102468.47;;;6.00;100.00
11525;BME280;5819;49.648;8.330;2023-02-12T17:54:35;102467.66;;;6.04;100.00
11525;BME280;5819;49.648;8.330;2023-02-12T17:57:04;102477.03;;;5.96;100.00
11525;BME280;5819;49.648;8.330;2023-02-12T17:59:31;102481.28;;;5.91;100.00
11525;BME280;5819;49.648;8.330;2023-02-12T18:01:59;102466.69;;;5.95;100.00
11525;BME280;5819;49.648;8.330;2023-02-12T18:04:29;102476.09;;;5.88;100.00
11525;BME280;5819;49.648;8.330;2023-02-12T18:06:59;102477.81;;;5.88;100.00
11525;BME280;5819;49.648;8.330;2023-02-12T18:09:27;102474.34;;;5.87;100.00
11525;BME280;5819;49.648;8.330;2023-02-12T18:11:56;102477.81;;;5.88;100.00
11525;BME280;5819;49.648;8.330;2023-02-12T18:14:24;102473.41;;;5.84;100.00
11525;BME280;5819;49.648;8.330;2023-02-12T18:16:52;102475.88;;;5.75;100.00
11525;BME280;5819;49.648;8.330;2023-02-12T18:19:20;102479.34;;;5.75;100.00
11525;BME280;5819;49.648;8.330;2023-02-12T18:21:48;102480.09;;;5.66;100.00
11525;BME280;5819;49.648;8.330;2023-02-12T18:24:16;102480.06;;;5.63;100.00
11525;BME280;5819;49.648;8.330;2023-02-12T18:26:44;102480.06;;;5.63;100.00
11525;BME280;5819;49.648;8.330;2023-02-12T18:29:13;102485.25;;;5.65;100.00
11525;BME280;5819;49.648;8.330;2023-02-12T18:31:41;102473.22;;;5.65;100.00
11525;BME280;5819;49.648;8.330;2023-02-12T18:34:09;102479.84;;;5.47;100.00
11525;BME280;5819;49.648;8.330;2023-02-12T18:36:37;102481.56;;;5.46;100.00
11525;BME280;5819;49.648;8.330;2023-02-12T18:39:05;102476.31;;;5.37;100.00
11525;BME280;5819;49.648;8.330;2023-02-12T18:41:33;102472.75;;;5.31;100.00
11525;BME280;5819;49.648;8.330;2023-02-12T18:44:01;102476.16;;;5.30;100.00
11525;BME280;5819;49.648;8.330;2023-02-12T18:46:32;102479.56;;;5.26;100.00
11525;BME280;5819;49.648;8.330;2023-02-12T18:49:00;102472.75;;;5.29;100.00
11525;BME280;5819;49.648;8.330;2023-02-12T18:51:29;102466.66;;;5.26;100.00
11525;BME280;5819;49.648;8.330;2023-02-12T18:54:00;102474.41;;;5.26;100.00
11525;BME280;5819;49.648;8.330;2023-02-12T18:56:35;102468.38;;;5.24;100.00
11525;BME280;5819;49.648;8.330;2023-02-12T18:59:04;102462.38;;;5.26;100.00
11525;BME280;5819;49.648;8.330;2023-02-12T19:01:34;102460.56;;;5.19;100.00
11525;BME280;5819;49.648;8.330;2023-02-12T19:04:05;102464.03;;;5.23;100.00
11525;BME280;5819;49.648;8.330;2023-02-12T19:06:38;102471.69;;;5.15;100.00
11525;BME280;5819;49.648;8.330;2023-02-12T19:09:08;102471.56;;;5.07;100.00
11525;BME280;5819;49.648;8.330;2023-02-12T19:11:36;102468.16;;;5.08;100.00
11525;BME280;5819;49.648;8.330;2023-02-12T19:14:04;102467.25;;;5.05;100.00
11525;BME280;5819;49.648;8.330;2023-02-12T19:16:34;102472.34;;;5.00;100.00
11525;BME280;5819;49.648;8.330;2023-02-12T19:19:02;102462.03;;;5.02;100.00
11525;BME280;5819;49.648;8.330;2023-02-12T19:21:31;102467.28;;;5.08;100.00
11525;BME280;5819;49.648;8.330;2023-02-12T19:24:00;102470.75;;;5.08;100.00
11525;BME280;5819;49.648;8.330;2023-02-12T19:26:31;102462.91;;;5.02;100.00
11525;BME280;5819;49.648;8.330;2023-02-12T19:29:00;102473.28;;;5.05;100.00
11525;BME280;5819;49.648;8.330;2023-02-12T19:31:30;102468.16;;;5.10;100.00
11525;BME280;5819;49.648;8.330;2023-02-12T19:34:01;102471.69;;;5.15;100.00
11525;BME280;5819;49.648;8.330;2023-02-12T19:36:34;102471.63;;;5.10;100.00
11525;BME280;5819;49.648;8.330;2023-02-12T19:39:03;102469.88;;;5.08;100.00
11525;BME280;5819;49.648;8.330;2023-02-12T19:41:36;102474.13;;;5.04;100.00
11525;BME280;5819;49.648;8.330;2023-02-12T19:44:10;102480.03;;;4.99;100.00
11525;BME280;5819;49.648;8.330;2023-02-12T19:46:40;102482.63;;;4.99;100.00
11525;BME280;5819;49.648;8.330;2023-02-12T19:49:14;102475.69;;;4.95;100.00
11525;BME280;5819;49.648;8.330;2023-02-12T19:51:44;102480.00;;;4.96;100.00
11525;BME280;5819;49.648;8.330;2023-02-12T19:54:14;102476.66;;;5.01;100.00
11525;BME280;5819;49.648;8.330;2023-02-12T19:56:43;102484.28;;;4.95;100.00
11525;BME280;5819;49.648;8.330;2023-02-12T19:59:12;102478.22;;;4.92;100.00
11525;BME280;5819;49.648;8.330;2023-02-12T20:01:43;102479.88;;;4.87;100.00
11525;BME280;5819;49.648;8.330;2023-02-12T20:04:17;102480.66;;;4.83;100.00
11525;BME280;5819;49.648;8.330;2023-02-12T20:06:46;102479.88;;;4.87;100.00
11525;BME280;5819;49.648;8.330;2023-02-12T20:09:17;102478.88;;;4.79;100.00
11525;BME280;5819;49.648;8.330;2023-02-12T20:11:46;102482.22;;;4.71;100.00
11525;BME280;5819;49.648;8.330;2023-02-12T20:14:15;102483.13;;;4.75;100.00
11525;BME280;5819;49.648;8.330;2023-02-12T20:16:43;102482.25;;;4.73;100.00
11525;BME280;5819;49.648;8.330;2023-02-12T20:19:17;102479.63;;;4.71;100.00
11525;BME280;5819;49.648;8.330;2023-02-12T20:21:46;102478.13;;;4.84;100.00
11525;BME280;5819;49.648;8.330;2023-02-12T20:24:20;102477.88;;;4.70;100.00
11525;BME280;5819;49.648;8.330;2023-02-12T20:26:49;102483.88;;;4.68;100.00
11525;BME280;5819;49.648;8.330;2023-02-12T20:29:18;102494.16;;;4.66;100.00
11525;BME280;5819;49.648;8.330;2023-02-12T20:31:46;102488.13;;;4.66;100.00
11525;BME280;5819;49.648;8.330;2023-02-12T20:34:18;102482.97;;;4.66;100.00
11525;BME280;5819;49.648;8.330;2023-02-12T20:36:48;102483.78;;;4.63;100.00
11525;BME280;5819;49.648;8.330;2023-02-12T20:39:18;102489.81;;;4.64;100.00
11525;BME280;5819;49.648;8.330;2023-02-12T20:41:47;102484.59;;;4.59;100.00
11525;BME280;5819;49.648;8.330;2023-02-12T20:44:18;102487.16;;;4.59;100.00